Time;durP1;ratioP1;P1;durP2;ratioP2;P2;SDS_P1;SDS_P2;PMS_P1;PMS_P2;Temp;Humidity;BMP_temperature;BMP_pressure;BME280_temperature;BME280_humidity;BME280_pressure;Samples;Min_cycle;Max_cycle;Signal;HPM_P1;HPM_P2
2021/04/03 00:02:24;;;;;;;26.85;12.27;;;;;;;14.77;49.74;99996.19;5084931;28;20048;-77
2021/04/03 00:05:11;;;;;;;29.15;11.13;;;;;;;14.66;50.31;99995.19;5088594;28;20056;-78
2021/04/03 00:07:56;;;;;;;35.80;15.75;;;;;;;14.68;49.92;99992.88;5085638;28;20039;-78
2021/04/03 00:10:52;;;;;;;31.25;12.73;;;;;;;14.69;50.41;99994.44;5082867;28;20040;-78
2021/04/03 00:13:41;;;;;;;36.85;16.02;;;;;;;14.71;50.72;99994.88;5089146;28;20040;-79
2021/04/03 00:16:26;;;;;;;43.47;18.95;;;;;;;14.63;52.04;99983.00;5092508;28;20562;-78
2021/04/03 00:19:11;;;;;;;36.13;18.83;;;;;;;14.84;52.11;99988.09;5086001;28;20067;-78
2021/04/03 00:21:56;;;;;;;25.52;14.60;;;;;;;14.92;51.54;99992.59;5091193;28;20174;-77
2021/04/03 00:24:40;;;;;;;;;;;;;;;14.61;51.84;99990.00;5088652;28;20040;-78
2021/04/03 00:27:25;;;;;;;35.28;17.13;;;;;;;14.61;51.18;99984.53;5084135;28;20391;-78
2021/04/03 00:30:15;;;;;;;32.80;14.90;;;;;;;14.54;51.10;99991.44;5090304;28;20044;-77
2021/04/03 00:33:02;;;;;;;29.27;16.58;;;;;;;14.42;50.98;99983.38;5083593;28;20039;-78
2021/04/03 00:35:47;;;;;;;41.63;18.02;;;;;;;14.30;51.17;99969.78;5103541;22;20115;-78
2021/04/03 00:38:32;;;;;;;34.53;15.68;;;;;;;14.61;49.89;99982.56;5075031;28;20039;-77
2021/04/03 00:41:17;;;;;;;;;;;;;;;14.51;50.17;99991.34;5076120;28;20047;-78
2021/04/03 00:44:01;;;;;;;35.88;16.90;;;;;;;14.45;50.27;99985.38;5077034;28;19912;-79
2021/04/03 00:46:46;;;;;;;25.25;12.48;;;;;;;14.58;49.98;99980.53;5074180;28;20513;-77
2021/04/03 00:49:32;;;;;;;37.42;17.70;;;;;;;14.63;49.25;99984.97;5078724;28;20063;-79
2021/04/03 00:52:17;;;;;;;52.15;16.90;;;;;;;13.97;51.02;99974.88;5061791;28;20047;-81
2021/04/03 00:55:07;;;;;;;29.58;14.13;;;;;;;13.87;51.32;99975.44;5059707;28;20442;-77
2021/04/03 00:57:54;;;;;;;29.75;15.60;;;;;;;13.89;51.19;99962.22;5077352;28;20513;-79
2021/04/03 01:00:40;;;;;;;41.50;17.65;;;;;;;13.99;51.42;99953.47;5075836;28;20051;-80
2021/04/03 01:03:25;;;;;;;46.88;18.00;;;;;;;13.90;51.42;99963.81;5044586;28;20127;-76
2021/04/03 01:06:14;;;;;;;40.40;17.48;;;;;;;13.68;51.48;99965.22;5063211;28;20044;-79
2021/04/03 01:09:00;;;;;;;31.48;16.08;;;;;;;13.39;52.42;99971.16;5076343;28;20051;-79
2021/04/03 01:12:16;;;;;;;32.90;16.13;;;;;;;13.38;52.37;99975.03;5072709;28;20552;-79
2021/04/03 01:15:15;;;;;;;30.13;13.70;;;;;;;13.61;52.15;99971.31;5069035;28;20115;-79
2021/04/03 01:18:19;;;;;;;43.28;18.40;;;;;;;13.80;53.44;99964.34;5056558;28;20051;-78
2021/04/03 01:21:20;;;;;;;32.95;17.67;;;;;;;13.83;53.69;99958.16;5075049;28;20056;-78
2021/04/03 01:24:20;;;;;;;47.75;21.55;;;;;;;13.77;53.72;99967.78;5075198;28;20419;-79
2021/04/03 01:27:17;;;;;;;35.90;19.40;;;;;;;13.83;54.05;99972.63;5076657;28;20422;-78
2021/04/03 01:30:05;;;;;;;43.38;19.77;;;;;;;13.58;54.75;99961.09;5074565;28;20048;-76
2021/04/03 01:33:12;;;;;;;38.25;18.52;;;;;;;13.52;53.69;99951.59;5069054;28;20071;-77
2021/04/03 01:36:05;;;;;;;30.70;16.75;;;;;;;13.18;54.32;99963.22;5060867;28;20044;-77
2021/04/03 01:39:06;;;;;;;37.38;18.40;;;;;;;13.14;54.53;99960.41;5073808;28;20047;-77
2021/04/03 01:41:54;;;;;;;39.85;21.23;;;;;;;13.11;54.89;99952.06;5061310;28;20505;-77
2021/04/03 01:44:57;;;;;;;34.47;19.00;;;;;;;13.20;54.68;99930.91;5057344;28;20043;-77
2021/04/03 01:47:44;;;;;;;40.28;20.10;;;;;;;13.26;54.66;99932.19;5061607;28;20513;-76
2021/04/03 01:50:30;;;;;;;34.83;17.48;;;;;;;13.21;54.70;99940.66;5075628;28;20536;-76
2021/04/03 01:53:20;;;;;;;52.13;19.77;;;;;;;13.02;54.70;99938.59;5055893;28;20040;-77
2021/04/03 01:56:11;;;;;;;36.13;18.08;;;;;;;12.82;55.35;99943.13;5061642;28;20048;-79
2021/04/03 01:58:59;;;;;;;38.80;18.92;;;;;;;12.70;55.70;99932.28;5072794;28;20055;-77
2021/04/03 02:01:53;;;;;;;34.95;18.00;;;;;;;12.79;56.19;99941.13;5056220;28;20051;-77
2021/04/03 02:04:42;;;;;;;42.70;19.67;;;;;;;12.89;56.89;99939.81;5068978;28;20292;-76
2021/04/03 02:07:30;;;;;;;39.10;18.83;;;;;;;12.88;56.79;99948.34;5059157;28;20052;-76
2021/04/03 02:10:23;;;;;;;39.70;19.65;;;;;;;12.93;56.48;99945.34;5057724;28;20047;-77
2021/04/03 02:13:08;;;;;;;36.60;19.33;;;;;;;12.81;56.78;99938.03;5072509;28;20047;-80
2021/04/03 02:16:06;;;;;;;43.15;19.08;;;;;;;12.90;56.68;99935.91;5056581;28;20052;-78
2021/04/03 02:18:54;;;;;;;42.35;20.73;;;;;;;12.96;57.28;99939.19;5054759;28;20054;-76
2021/04/03 02:21:40;;;;;;;36.88;18.33;;;;;;;12.97;56.98;99929.88;5073203;28;20524;-78
2021/04/03 02:24:26;;;;;;;37.90;20.88;;;;;;;13.01;56.37;99920.63;5058355;28;20051;-79
2021/04/03 02:27:12;;;;;;;41.25;18.40;;;;;;;12.95;56.73;99937.63;5070739;28;20055;-79
2021/04/03 02:30:12;;;;;;;46.30;19.30;;;;;;;12.74;57.01;99921.47;5073085;28;20525;-79
2021/04/03 02:32:57;;;;;;;42.90;19.83;;;;;;;12.85;56.71;99928.00;5070518;28;20043;-77
2021/04/03 02:35:46;;;;;;;38.40;17.73;;;;;;;12.91;56.09;99931.25;5061217;28;20394;-78
2021/04/03 02:38:32;;;;;;;41.08;16.90;;;;;;;12.66;55.14;99934.13;5074446;28;20510;-77
2021/04/03 02:41:54;;;;;;;30.05;16.77;;;;;;;12.65;56.29;99935.25;5056797;28;20055;-77
2021/04/03 02:44:54;;;;;;;531.95;50.47;;;;;;;12.63;56.13;99940.28;5057894;28;20395;-79
2021/04/03 02:47:45;;;;;;;69.22;20.55;;;;;;;12.64;56.81;99941.88;5071051;28;20036;-78
2021/04/03 02:50:42;;;;;;;50.83;18.13;;;;;;;12.60;56.77;99929.25;5061085;28;20153;-77
2021/04/03 02:53:32;;;;;;;60.92;20.55;;;;;;;12.57;57.13;99929.97;5073627;28;20051;-78
2021/04/03 02:56:21;;;;;;;80.75;22.73;;;;;;;12.58;59.57;99939.72;5070577;28;20051;-79
2021/04/03 02:59:14;;;;;;;57.72;22.60;;;;;;;12.72;57.98;99932.72;5075889;28;20131;-77
2021/04/03 03:02:02;;;;;;;41.83;20.13;;;;;;;12.65;57.46;99935.25;5068425;28;20044;-79
2021/04/03 03:04:51;;;;;;;36.60;19.67;;;;;;;12.71;59.85;99944.78;5076399;28;20394;-79
2021/04/03 03:07:40;;;;;;;37.40;21.30;;;;;;;12.55;59.34;99941.19;5071947;28;20043;-79
2021/04/03 03:10:27;;;;;;;43.50;19.40;;;;;;;12.46;57.78;99940.56;5070371;28;20063;-79
2021/04/03 03:13:19;;;;;;;40.25;24.48;;;;;;;12.44;62.73;99948.31;5058455;28;20039;-78
2021/04/03 03:16:06;;;;;;;51.45;26.02;;;;;;;12.21;64.05;99950.75;5074387;28;20517;-79
2021/04/03 03:18:55;;;;;;;47.42;24.98;;;;;;;12.43;62.90;99954.91;5068755;28;20364;-78
2021/04/03 03:21:42;;;;;;;48.72;27.27;;;;;;;12.32;64.70;99956.53;5058109;28;20055;-79
2021/04/03 03:24:28;;;;;;;44.58;25.38;;;;;;;12.15;65.92;99956.78;5056644;28;20406;-79
2021/04/03 03:27:18;;;;;;;51.13;26.58;;;;;;;12.28;64.96;99950.16;5055417;28;20043;-78
2021/04/03 03:30:07;;;;;;;37.28;23.08;;;;;;;12.30;62.54;99953.34;5057704;28;20067;-79
2021/04/03 03:32:55;;;;;;;43.03;23.48;;;;;;;11.94;62.04;99960.44;5072627;28;20047;-79
2021/04/03 03:35:41;;;;;;;32.92;20.67;;;;;;;11.69;62.49;99955.31;5053681;28;20506;-79
2021/04/03 03:38:28;;;;;;;41.53;23.10;;;;;;;11.57;63.77;99967.03;5058639;28;20051;-80
2021/04/03 03:41:14;;;;;;;39.85;22.10;;;;;;;11.69;63.88;99966.22;5057721;28;20059;-80
2021/04/03 03:44:01;;;;;;;37.72;22.65;;;;;;;11.78;63.14;99964.22;5053759;28;20071;-79
2021/04/03 03:46:47;;;;;;;52.80;25.38;;;;;;;11.89;64.21;99954.44;5061359;28;20433;-78
2021/04/03 03:49:32;;;;;;;48.28;26.15;;;;;;;11.87;63.80;99962.16;5076694;28;20047;-78
2021/04/03 03:52:18;;;;;;;48.83;26.05;;;;;;;11.86;64.05;99963.31;5054442;28;20413;-78
2021/04/03 03:55:04;;;;;;;43.33;24.63;;;;;;;11.66;63.65;99973.16;5078055;28;20419;-77
2021/04/03 03:57:50;;;;;;;49.63;23.45;;;;;;;11.28;65.26;99980.81;5061285;28;20051;-78
2021/04/03 04:00:36;;;;;;;47.30;25.30;;;;;;;10.93;67.58;99980.38;5057677;28;20064;-79
2021/04/03 04:03:27;;;;;;;46.85;24.67;;;;;;;11.42;65.87;99965.78;5078566;28;20548;-77
2021/04/03 04:06:17;;;;;;;51.20;26.25;;;;;;;11.60;65.30;99966.34;5075873;28;20055;-78
2021/04/03 04:09:06;;;;;;;41.55;26.05;;;;;;;11.78;64.93;99975.13;5072586;28;20051;-78
2021/04/03 04:12:07;;;;;;;45.80;25.80;;;;;;;11.78;65.02;99961.50;5070631;28;20410;-78
2021/04/03 04:15:00;;;;;;;45.53;22.92;;;;;;;11.84;63.54;99965.56;5054763;28;20044;-77
2021/04/03 04:17:46;;;;;;;47.67;27.00;;;;;;;11.71;65.92;99970.19;5063477;28;20517;-78
2021/04/03 04:20:32;;;;;;;49.92;26.25;;;;;;;11.68;65.90;99976.34;5058970;28;20052;-78
2021/04/03 04:23:22;;;;;;;43.05;24.98;;;;;;;11.27;66.20;99984.69;5073545;28;20051;-79
2021/04/03 04:26:12;;;;;;;48.95;26.02;;;;;;;11.36;66.87;99978.00;5078939;28;20036;-79
2021/04/03 04:28:59;;;;;;;47.78;26.63;;;;;;;11.48;66.43;99980.72;5059815;28;20067;-78
2021/04/03 04:31:47;;;;;;;47.75;27.40;;;;;;;11.71;66.54;99992.00;5057506;28;20039;-79
2021/04/03 04:34:36;;;;;;;48.72;26.88;;;;;;;11.50;66.09;99994.81;5073778;28;20047;-78
2021/04/03 04:37:23;;;;;;;44.72;27.00;;;;;;;11.52;67.13;99997.19;5056958;28;20091;-80
2021/04/03 04:40:13;;;;;;;50.75;25.48;;;;;;;11.62;66.40;99995.97;5059223;28;20055;-77
2021/04/03 04:42:58;;;;;;;51.90;25.58;;;;;;;11.45;66.89;100005.91;5076663;28;20043;-79
2021/04/03 04:45:48;;;;;;;52.95;26.48;;;;;;;11.72;65.65;100015.38;5063800;28;20040;-78
2021/04/03 04:48:36;;;;;;;41.97;24.20;;;;;;;11.62;64.75;100015.81;5059374;28;20036;-78
2021/04/03 04:51:27;;;;;;;48.63;25.90;;;;;;;11.49;65.34;100023.16;5062335;28;20036;-79
2021/04/03 04:54:20;;;;;;;48.20;24.25;;;;;;;11.42;64.87;100008.53;5059344;28;20032;-78
2021/04/03 04:57:08;;;;;;;44.85;24.48;;;;;;;11.57;66.52;100011.41;5055957;28;20033;-80
2021/04/03 05:00:07;;;;;;;48.60;23.58;;;;;;;11.78;67.32;100024.94;5060259;28;20048;-79
2021/04/03 05:03:28;;;;;;;49.95;23.17;;;;;;;11.70;65.95;100042.13;5011354;28;20585;-78
2021/04/03 05:06:13;;;;;;;40.58;22.75;;;;;;;11.89;65.56;100039.69;5077440;28;20041;-78
2021/04/03 05:08:58;;;;;;;40.47;23.23;;;;;;;12.03;65.00;100049.47;5072265;28;20048;-78
2021/04/03 05:11:43;;;;;;;33.22;17.38;;;;;;;11.97;64.61;100044.25;5073816;28;20037;-78
2021/04/03 05:14:29;;;;;;;37.05;19.08;;;;;;;12.14;63.81;100043.19;5077728;28;20041;-79
2021/04/03 05:17:14;;;;;;;39.67;21.67;;;;;;;12.22;62.93;100052.41;5075150;28;20032;-78
2021/04/03 05:19:59;;;;;;;27.42;17.15;;;;;;;12.22;62.34;100046.94;5071410;28;20052;-79
2021/04/03 05:22:44;;;;;;;31.25;16.45;;;;;;;12.33;62.98;100043.41;5076931;28;20036;-80
2021/04/03 05:25:30;;;;;;;40.63;21.95;;;;;;;12.38;62.24;100040.47;5075778;28;20040;-79
2021/04/03 05:28:15;;;;;;;32.00;21.30;;;;;;;12.54;62.59;100037.81;5073509;28;20033;-79
2021/04/03 05:31:00;;;;;;;30.00;18.67;;;;;;;12.64;65.23;100040.06;5077753;28;20044;-78
2021/04/03 05:33:45;;;;;;;35.42;15.80;;;;;;;12.78;65.40;100053.31;5074707;28;20032;-79
2021/04/03 05:36:30;;;;;;;26.35;16.55;;;;;;;12.65;63.29;100047.09;5073251;28;20036;-78
2021/04/03 05:39:15;;;;;;;31.30;18.02;;;;;;;12.74;63.51;100058.69;5077229;28;20041;-78
2021/04/03 05:42:00;;;;;;;30.02;16.27;;;;;;;12.84;63.04;100062.84;5076101;28;20041;-79
2021/04/03 05:44:45;;;;;;;;;;;;;;;12.97;61.82;100063.59;5073965;28;20032;-79
2021/04/03 05:47:35;;;;;;;39.17;23.65;;;;;;;13.20;61.69;100059.22;5075968;28;20437;-78
2021/04/03 05:50:20;;;;;;;39.97;21.45;;;;;;;13.48;60.76;100064.63;5074821;28;20032;-79
2021/04/03 05:53:07;;;;;;;139.25;26.10;;;;;;;13.63;60.72;100061.13;5057267;28;20032;-79
2021/04/03 05:55:54;;;;;;;32.85;14.90;;;;;;;13.94;59.97;100058.41;5076074;28;20032;-79
2021/04/03 05:58:38;;;;;;;29.95;20.02;;;;;;;14.13;60.07;100068.59;5076103;28;20036;-79
2021/04/03 06:01:24;;;;;;;27.58;15.10;;;;;;;14.39;59.71;100071.59;5072838;28;20514;-80
2021/04/03 06:04:09;;;;;;;37.22;18.48;;;;;;;14.73;59.75;100069.22;5077538;28;20048;-81
2021/04/03 06:06:55;;;;;;;33.85;16.90;;;;;;;14.93;60.67;100073.56;5061532;28;20028;-80
2021/04/03 06:09:40;;;;;;;;;;;;;;;15.39;59.56;100085.41;5071887;28;20048;-80
2021/04/03 06:12:38;;;;;;;32.97;14.73;;;;;;;16.02;58.17;100094.03;5076833;28;19912;-77
2021/04/03 06:15:26;;;;;;;42.63;24.17;;;;;;;17.05;53.71;100093.59;5072914;28;20029;-77
2021/04/03 06:18:13;;;;;;;31.85;18.05;;;;;;;17.72;51.34;100098.28;5072755;28;20498;-77
2021/04/03 06:21:07;;;;;;;39.00;22.08;;;;;;;18.83;47.71;100107.03;5075517;28;20045;-78
2021/04/03 06:23:52;;;;;;;32.33;15.60;;;;;;;19.63;45.92;100119.56;5069348;28;20033;-77
2021/04/03 06:26:37;;;;;;;;;;;;;;;20.09;44.91;100116.06;5058750;28;20033;-78
2021/04/03 06:29:36;;;;;;;36.72;20.45;;;;;;;21.51;41.55;100121.31;5077377;28;19912;-80
2021/04/03 06:32:26;;;;;;;41.13;19.52;;;;;;;21.71;39.86;100114.88;5072786;28;20032;-78
2021/04/03 06:35:11;;;;;;;44.67;22.80;;;;;;;22.56;37.60;100113.41;5072421;28;20663;-79
2021/04/03 06:38:17;;;;;;;56.33;24.60;;;;;;;23.80;35.57;100123.84;5076521;28;20033;-80
2021/04/03 06:41:26;;;;;;;32.83;17.05;;;;;;;24.18;35.60;100132.00;5073934;28;20040;-82
2021/04/03 06:44:12;;;;;;;19.52;11.57;;;;;;;24.86;35.09;100131.59;5121502;22;20071;-77
2021/04/03 06:47:04;;;;;;;20.52;11.15;;;;;;;24.27;35.45;100135.03;5099389;28;20032;-77
2021/04/03 06:49:50;;;;;;;17.52;10.43;;;;;;;25.45;33.79;100143.53;5107744;28;20036;-80
2021/04/03 06:52:36;;;;;;;18.90;8.63;;;;;;;25.06;33.37;100147.13;5099039;28;20041;-81
2021/04/03 06:55:23;;;;;;;18.52;9.43;;;;;;;24.84;34.53;100140.38;5094794;28;20047;-82
2021/04/03 06:58:08;;;;;;;24.92;9.95;;;;;;;24.74;34.59;100143.38;5092583;28;20051;-81
2021/04/03 07:00:53;;;;;;;16.10;8.27;;;;;;;24.35;35.16;100138.47;5084190;28;20530;-81
2021/04/03 07:03:44;;;;;;;18.63;7.97;;;;;;;21.79;39.34;100129.44;5089006;28;20126;-84
2021/04/03 07:06:32;;;;;;;17.27;7.22;;;;;;;19.67;44.61;100130.59;5097220;28;20033;-86
2021/04/03 07:09:18;;;;;;;20.15;7.68;;;;;;;19.32;45.50;100134.00;5091225;28;20043;-83
2021/04/03 07:12:04;;;;;;;32.60;8.20;;;;;;;18.86;46.45;100127.50;5098356;28;20047;-84
2021/04/03 07:14:51;;;;;;;22.30;8.95;;;;;;;19.02;46.27;100130.72;5060792;28;20436;-82
2021/04/03 07:17:43;;;;;;;16.13;8.00;;;;;;;19.06;46.13;100137.03;5069741;28;20412;-82
2021/04/03 07:20:34;;;;;;;25.90;8.27;;;;;;;18.83;46.53;100139.28;5088063;28;20510;-82
2021/04/03 07:23:21;;;;;;;26.30;8.55;;;;;;;18.74;47.18;100134.13;5095983;28;20054;-83
2021/04/03 07:26:09;;;;;;;23.83;7.82;;;;;;;19.06;46.21;100140.59;5095990;28;20035;-83
2021/04/03 07:28:54;;;;;;;23.13;8.60;;;;;;;19.00;46.37;100147.66;5098098;28;20047;-83
2021/04/03 07:31:41;;;;;;;;;;;;;;;19.22;45.95;100156.81;5093794;28;20043;-84
2021/04/03 07:34:40;;;;;;;21.05;7.60;;;;;;;19.28;45.71;100152.50;5084306;28;19912;-83
2021/04/03 07:37:35;;;;;;;26.80;9.25;;;;;;;18.99;45.99;100151.59;5098259;28;20048;-80
2021/04/03 07:40:23;;;;;;;15.52;7.88;;;;;;;19.08;46.32;100151.25;5083423;28;20035;-83
2021/04/03 07:43:36;;;;;;;19.35;7.40;;;;;;;19.24;45.22;100162.75;5091292;28;20400;-82
2021/04/03 07:46:21;;;;;;;18.23;7.68;;;;;;;19.28;46.31;100168.25;5096638;28;20534;-83
2021/04/03 07:49:07;;;;;;;20.48;9.00;;;;;;;19.50;45.77;100170.75;5086634;28;20055;-83
2021/04/03 07:51:52;;;;;;;27.88;11.18;;;;;;;19.53;45.90;100178.25;5081552;28;20055;-85
2021/04/03 07:54:37;;;;;;;;;;;;;;;19.50;46.41;100176.28;5078126;28;20040;-86
2021/04/03 07:57:34;;;;;;;21.10;11.07;;;;;;;19.37;46.61;100182.47;5076658;28;19916;-85
2021/04/03 08:00:25;;;;;;;25.48;8.63;;;;;;;19.17;45.78;100177.28;5094775;28;20036;-87
2021/04/03 08:03:10;;;;;;;26.70;9.65;;;;;;;19.14;45.83;100180.81;5086305;28;20051;-85
2021/04/03 08:05:58;;;;;;;28.38;9.00;;;;;;;19.21;45.89;100191.84;5088124;28;20103;-84
2021/04/03 08:08:44;;;;;;;29.63;8.75;;;;;;;19.02;45.70;100186.63;5091288;28;20055;-84
2021/04/03 08:11:29;;;;;;;30.67;8.18;;;;;;;18.65;46.34;100181.28;5093375;28;20043;-85
2021/04/03 08:14:15;;;;;;;;;;;;;;;18.75;46.25;100199.84;5085608;28;20474;-90
2021/04/03 08:17:01;;;;;;;15.10;9.32;;;;;;;18.57;47.17;100192.63;5088894;28;19916;-88
2021/04/03 08:19:47;;;;;;;17.80;8.20;;;;;;;18.24;47.34;100223.75;5087340;28;20397;-85
2021/04/03 08:22:32;;;;;;;18.13;7.68;;;;;;;18.41;46.72;100217.63;5095829;28;20051;-90
2021/04/03 08:25:20;;;;;;;32.50;7.72;;;;;;;18.86;46.11;100218.41;5086445;28;20510;-86
2021/04/03 08:28:32;;;;;;;21.65;6.68;;;;;;;18.95;45.42;100225.16;5089697;28;20043;-85
2021/04/03 08:31:29;;;;;;;23.55;7.10;;;;;;;18.94;45.48;100233.84;5097298;28;20055;-84
2021/04/03 08:34:14;;;;;;;19.27;6.93;;;;;;;19.31;45.59;100236.41;5094987;28;20423;-85
2021/04/03 08:36:59;;;;;;;;;;;;;;;19.59;43.99;100239.34;5103798;28;20047;-87
2021/04/03 08:39:43;;;;;;;32.00;7.93;;;;;;;19.53;43.62;100249.97;5098094;28;20379;-80
2021/04/03 08:42:32;;;;;;;;;;;;;;;19.10;43.98;100251.66;5087694;28;21390;-82
2021/04/03 08:45:17;;;;;;;39.88;8.18;;;;;;;19.39;44.02;100249.06;5085847;28;20283;-82
2021/04/03 08:48:02;;;;;;;24.65;5.78;;;;;;;19.40;43.72;100256.19;5077198;28;20055;-81
2021/04/03 08:50:49;;;;;;;24.27;7.38;;;;;;;19.06;44.24;100267.38;5098063;28;20043;-81
2021/04/03 08:53:48;;;;;;;14.98;5.60;;;;;;;19.15;44.61;100258.75;5100030;28;20044;-81
2021/04/03 08:56:35;;;;;;;14.98;5.65;;;;;;;19.31;44.63;100263.97;5093218;28;20047;-81
2021/04/03 08:59:21;;;;;;;15.48;6.30;;;;;;;19.23;43.48;100271.44;5078406;28;20039;-81
2021/04/03 09:02:06;;;;;;;17.35;5.43;;;;;;;19.44;43.44;100268.00;5076691;28;20066;-81
2021/04/03 09:04:52;;;;;;;22.67;5.93;;;;;;;19.31;43.15;100284.06;5092379;28;20055;-81
2021/04/03 09:07:37;;;;;;;13.00;5.38;;;;;;;19.66;43.66;100274.47;5093910;28;20035;-82
2021/04/03 09:10:25;;;;;;;;;;;;;;;19.87;42.59;100282.81;5095629;28;20047;-81
2021/04/03 09:13:13;;;;;;;18.27;5.55;;;;;;;20.01;41.62;100278.13;5099303;28;19912;-82
2021/04/03 09:16:15;;;;;;;13.48;5.07;;;;;;;20.02;42.68;100299.03;5094287;28;20051;-82
2021/04/03 09:19:00;;;;;;;16.67;4.95;;;;;;;19.89;42.08;100284.03;5094328;28;20043;-82
2021/04/03 09:21:46;;;;;;;20.52;5.63;;;;;;;19.57;43.54;100299.63;5097292;28;20046;-81
2021/04/03 09:24:58;;;;;;;15.13;4.68;;;;;;;19.83;41.66;100318.69;5088806;28;20055;-81
2021/04/03 09:28:06;;;;;;;57.80;5.60;;;;;;;20.06;41.45;100310.13;5097586;28;20038;-85
2021/04/03 09:30:54;;;;;;;18.90;4.18;;;;;;;20.46;41.12;100317.34;5092185;28;20040;-79
2021/04/03 09:33:47;;;;;;;36.20;5.32;;;;;;;20.01;40.87;100338.09;5089962;28;20047;-80
2021/04/03 09:36:43;;;;;;;18.58;6.20;;;;;;;19.94;40.12;100329.78;5098643;28;20043;-80
2021/04/03 09:39:51;;;;;;;18.42;4.40;;;;;;;19.64;39.29;100328.06;5096231;28;20038;-81
2021/04/03 09:42:35;;;;;;;31.08;4.20;;;;;;;19.75;39.51;100325.34;5101083;28;20039;-80
2021/04/03 09:45:20;;;;;;;12.02;2.95;;;;;;;19.99;39.02;100334.91;5089696;28;20047;-80
2021/04/03 09:48:07;;;;;;;;;;;;;;;20.25;39.92;100353.97;5089754;28;20051;-78
2021/04/03 09:50:53;;;;;;;43.85;4.43;;;;;;;20.25;36.99;100337.38;5098692;28;20386;-80
2021/04/03 09:53:39;;;;;;;21.17;3.47;;;;;;;20.41;37.62;100324.06;5087665;28;20043;-80
2021/04/03 09:56:23;;;;;;;;;;;;;;;20.87;37.61;100359.25;5098952;28;20047;-80
2021/04/03 09:59:08;;;;;;;22.25;2.90;;;;;;;20.51;37.53;100346.56;5097729;28;20364;-80
2021/04/03 10:01:58;;;;;;;9.90;2.90;;;;;;;20.99;36.30;100345.03;5098003;28;20059;-80
2021/04/03 10:04:43;;;;;;;13.27;3.33;;;;;;;20.94;36.78;100339.91;5092329;28;20507;-79
2021/04/03 10:07:29;;;;;;;15.13;3.75;;;;;;;21.50;35.65;100341.88;5097501;28;20043;-80
2021/04/03 10:10:15;;;;;;;19.40;3.60;;;;;;;22.21;34.20;100357.50;5096272;28;20043;-79
2021/04/03 10:13:00;;;;;;;15.10;3.33;;;;;;;21.82;34.37;100363.94;5090829;28;20051;-79
2021/04/03 10:15:45;;;;;;;17.35;3.58;;;;;;;21.82;35.25;100352.88;5096550;28;20042;-79
2021/04/03 10:18:30;;;;;;;15.07;3.15;;;;;;;22.03;32.91;100352.03;5095909;28;20511;-79
2021/04/03 10:21:15;;;;;;;33.25;5.18;;;;;;;22.47;31.82;100352.22;5094550;28;20051;-80
2021/04/03 10:24:00;;;;;;;14.20;3.13;;;;;;;22.81;30.43;100346.88;5092307;28;20416;-81
2021/04/03 10:26:45;;;;;;;19.33;3.85;;;;;;;23.20;32.03;100343.81;5080480;28;20039;-81
2021/04/03 10:29:30;;;;;;;21.08;3.90;;;;;;;23.62;29.28;100362.03;5094362;28;20039;-80
2021/04/03 10:32:15;;;;;;;17.63;3.33;;;;;;;25.35;28.17;100353.34;5100006;28;20640;-80
2021/04/03 10:35:00;;;;;;;19.75;3.10;;;;;;;25.74;27.29;100368.59;5093501;28;20039;-80
2021/04/03 10:37:45;;;;;;;12.60;3.00;;;;;;;26.68;27.06;100367.03;5091232;28;20047;-80
2021/04/03 10:40:30;;;;;;;17.50;3.55;;;;;;;27.76;24.11;100361.19;5082743;28;20059;-81
2021/04/03 10:43:15;;;;;;;72.57;5.53;;;;;;;27.88;21.91;100350.06;5099527;28;20515;-82
2021/04/03 10:46:00;;;;;;;21.63;3.50;;;;;;;28.72;21.97;100360.00;5091268;28;20047;-82
2021/04/03 10:48:45;;;;;;;12.25;3.42;;;;;;;28.15;22.76;100360.09;5092928;28;20399;-82
2021/04/03 10:51:30;;;;;;;22.33;2.88;;;;;;;25.06;23.59;100353.03;5098193;28;20051;-82
2021/04/03 10:54:18;;;;;;;23.90;2.75;;;;;;;25.04;28.11;100351.91;5096684;28;20063;-82
2021/04/03 10:57:04;;;;;;;21.45;3.50;;;;;;;30.11;20.73;100367.28;5098408;28;20440;-82
2021/04/03 10:59:51;;;;;;;20.35;3.63;;;;;;;30.59;19.79;100377.06;5098106;28;20066;-82
2021/04/03 11:02:38;;;;;;;12.55;3.50;;;;;;;29.65;20.04;100372.50;5096388;28;20039;-82
2021/04/03 11:05:23;;;;;;;13.02;2.50;;;;;;;31.04;20.29;100375.69;5096754;28;20051;-83
2021/04/03 11:08:08;;;;;;;18.60;3.15;;;;;;;32.04;17.56;100378.63;5097563;28;20399;-82
2021/04/03 11:10:53;;;;;;;25.75;4.07;;;;;;;29.31;21.34;100361.28;5099332;28;20507;-83
2021/04/03 11:13:40;;;;;;;9.75;2.28;;;;;;;30.42;17.17;100375.72;5097894;28;20039;-82
2021/04/03 11:16:26;;;;;;;13.13;2.40;;;;;;;31.95;16.41;100385.03;5095364;28;20047;-82
2021/04/03 11:19:11;;;;;;;9.93;2.00;;;;;;;31.19;16.32;100380.28;5097207;28;20051;-82
2021/04/03 11:21:56;;;;;;;14.63;2.47;;;;;;;30.90;17.95;100391.09;5096986;28;20534;-81
2021/04/03 11:24:41;;;;;;;11.68;2.28;;;;;;;29.94;19.91;100377.13;5099699;28;20538;-82
2021/04/03 11:27:26;;;;;;;22.70;3.38;;;;;;;28.67;17.69;100380.09;5097301;28;20059;-80
2021/04/03 11:30:15;;;;;;;175.55;14.25;;;;;;;26.41;19.48;100374.84;5093547;28;20488;-80
2021/04/03 11:33:00;;;;;;;9.93;2.88;;;;;;;26.88;19.96;100373.38;5099542;28;20044;-80
2021/04/03 11:35:46;;;;;;;38.67;3.20;;;;;;;24.29;22.46;100379.97;5096000;28;20043;-82
2021/04/03 11:38:32;;;;;;;122.35;8.55;;;;;;;23.15;23.83;100382.28;5100256;28;20047;-81
2021/04/03 11:41:17;;;;;;;18.17;2.70;;;;;;;24.55;22.87;100379.22;5101410;28;20044;-81
2021/04/03 11:44:03;;;;;;;20.23;3.05;;;;;;;25.40;22.33;100377.13;5098337;28;20043;-80
2021/04/03 11:46:48;;;;;;;20.92;2.60;;;;;;;28.03;19.06;100378.41;5094745;28;20051;-82
2021/04/03 11:49:33;;;;;;;14.00;3.38;;;;;;;30.07;19.75;100380.66;5099159;28;20043;-82
2021/04/03 11:52:18;;;;;;;10.02;2.40;;;;;;;27.24;19.02;100381.66;5098328;28;20043;-81
2021/04/03 11:55:06;;;;;;;17.83;3.67;;;;;;;27.27;19.11;100388.41;5096640;28;20527;-82
2021/04/03 11:57:52;;;;;;;7.03;4.15;;;;;;;28.49;18.56;100382.69;5097465;28;20059;-81
2021/04/03 12:00:37;;;;;;;23.23;7.63;;;;;;;26.47;19.61;100392.63;5097245;28;20051;-80
2021/04/03 12:03:22;;;;;;;10.00;3.42;;;;;;;25.20;21.81;100379.84;5096803;28;20055;-80
2021/04/03 12:06:08;;;;;;;10.65;2.90;;;;;;;28.71;18.25;100377.97;5096303;28;20047;-80
2021/04/03 12:08:52;;;;;;;89.82;8.70;;;;;;;29.60;16.79;100389.91;5099082;28;20035;-80
2021/04/03 12:11:38;;;;;;;9.85;2.15;;;;;;;25.92;20.92;100378.19;5099843;28;20043;-80
2021/04/03 12:14:23;;;;;;;33.45;5.93;;;;;;;26.58;19.68;100384.81;5085519;28;20047;-83
2021/04/03 12:17:08;;;;;;;11.07;4.43;;;;;;;30.26;16.03;100375.94;5097702;28;20043;-80
2021/04/03 12:19:53;;;;;;;18.30;2.40;;;;;;;29.82;16.51;100370.28;5093475;28;20039;-80
2021/04/03 12:22:38;;;;;;;15.18;6.43;;;;;;;28.52;17.91;100378.19;5098596;28;20046;-83
2021/04/03 12:25:23;;;;;;;46.30;17.83;;;;;;;29.47;16.29;100372.31;5082546;28;20420;-81
2021/04/03 12:28:08;;;;;;;7.60;2.03;;;;;;;29.44;17.10;100373.25;5097004;28;20415;-80
2021/04/03 12:30:53;;;;;;;10.05;2.05;;;;;;;27.12;18.82;100354.47;5100973;28;20055;-79
2021/04/03 12:33:38;;;;;;;11.93;3.15;;;;;;;24.20;22.32;100361.03;5099780;28;20522;-79
2021/04/03 12:36:23;;;;;;;14.07;2.30;;;;;;;25.88;21.04;100366.31;5100295;28;20403;-80
2021/04/03 12:39:08;;;;;;;35.85;3.47;;;;;;;26.96;18.80;100360.84;5105256;28;20036;-79
2021/04/03 12:41:53;;;;;;;15.15;3.03;;;;;;;24.66;21.99;100352.06;5085902;28;20412;-81
2021/04/03 12:44:38;;;;;;;14.20;2.60;;;;;;;26.17;20.40;100360.94;5092438;28;20047;-79
2021/04/03 12:47:08;;;;;;;9.27;2.35;;;;;;;23.99;22.54;100343.78;5091758;22;20048;-79
2021/04/03 12:49:54;;;;;;;4.07;2.00;;;;;;;24.07;22.89;100348.06;5085303;28;20410;-79
2021/04/03 12:52:39;;;;;;;5.22;2.00;;;;;;;25.67;20.28;100352.00;5069845;28;20426;-79
2021/04/03 12:55:24;;;;;;;5.50;1.98;;;;;;;24.40;21.07;100341.69;5079097;28;20044;-81
2021/04/03 12:58:10;;;;;;;5.13;1.75;;;;;;;23.58;22.40;100330.78;5077725;28;20052;-79